sensor_id;sensor_type;location;lat;lon;timestamp;P1;P2;P0
74432;PMS7003;62865;53.146;23.172;2022-11-27T00:04:09;22;18.5;12
74432;PMS7003;62865;53.146;23.172;2022-11-27T00:09:35;17;16.5;10.5
74432;PMS7003;62865;53.146;23.172;2022-11-27T00:14:25;22;18.5;11.5
74432;PMS7003;62865;53.146;23.172;2022-11-27T00:19:35;18.3;15;10
74432;PMS7003;62865;53.146;23.172;2022-11-27T00:24:37;32;20.5;11
74432;PMS7003;62865;53.146;23.172;2022-11-27T00:29:15;24;21;11
74432;PMS7003;62865;53.146;23.172;2022-11-27T00:34:09;24;21;11
74432;PMS7003;62865;53.146;23.172;2022-11-27T00:39:29;23;17;11
74432;PMS7003;62865;53.146;23.172;2022-11-27T00:44:29;21;16;11
74432;PMS7003;62865;53.146;23.172;2022-11-27T00:49:27;16.5;14;9.5
74432;PMS7003;62865;53.146;23.172;2022-11-27T00:54:09;18;15.7;9
74432;PMS7003;62865;53.146;23.172;2022-11-27T00:59:15;16.5;11.5;8.5
74432;PMS7003;62865;53.146;23.172;2022-11-27T01:04:49;19;15.5;9.5
74432;PMS7003;62865;53.146;23.172;2022-11-27T01:09:25;20.5;18;10
74432;PMS7003;62865;53.146;23.172;2022-11-27T01:19:27;20.5;18;10
74432;PMS7003;62865;53.146;23.172;2022-11-27T01:24:17;21;16;9.8
74432;PMS7003;62865;53.146;23.172;2022-11-27T01:29:09;20;18;10
74432;PMS7003;62865;53.146;23.172;2022-11-27T01:34:41;36;24;11
74432;PMS7003;62865;53.146;23.172;2022-11-27T01:39:43;23.7;21;12.3
74432;PMS7003;62865;53.146;23.172;2022-11-27T01:44:52;18.5;15;11
74432;PMS7003;62865;53.146;23.172;2022-11-27T01:49:21;26;20.7;11.3
74432;PMS7003;62865;53.146;23.172;2022-11-27T01:54:44;20;15.8;10
74432;PMS7003;62865;53.146;23.172;2022-11-27T01:59:39;21.3;17.3;10.7
74432;PMS7003;62865;53.146;23.172;2022-11-27T02:04:29;24;16;11
74432;PMS7003;62865;53.146;23.172;2022-11-27T02:09:45;20.8;16.8;10.3
74432;PMS7003;62865;53.146;23.172;2022-11-27T02:14:09;21;17;11
74432;PMS7003;62865;53.146;23.172;2022-11-27T02:19:56;19.7;15.3;9.7
74432;PMS7003;62865;53.146;23.172;2022-11-27T02:24:16;19.8;17.3;9.8
74432;PMS7003;62865;53.146;23.172;2022-11-27T02:29:57;20;19;11
74432;PMS7003;62865;53.146;23.172;2022-11-27T02:34:32;18;15;11
74432;PMS7003;62865;53.146;23.172;2022-11-27T02:39:13;19.5;17.3;10.3
74432;PMS7003;62865;53.146;23.172;2022-11-27T02:44:19;21;17.5;9.5
74432;PMS7003;62865;53.146;23.172;2022-11-27T02:49:41;26.5;20.5;10.5
74432;PMS7003;62865;53.146;23.172;2022-11-27T02:54:43;22;17;11
74432;PMS7003;62865;53.146;23.172;2022-11-27T02:59:53;16.5;16.5;11.5
74432;PMS7003;62865;53.146;23.172;2022-11-27T03:04:11;16.5;16.5;11.5
74432;PMS7003;62865;53.146;23.172;2022-11-27T03:09:53;22.3;18.5;10.5
74432;PMS7003;62865;53.146;23.172;2022-11-27T03:14:41;23.7;20;12
74432;PMS7003;62865;53.146;23.172;2022-11-27T03:19:44;20.8;15.6;9.6
74432;PMS7003;62865;53.146;23.172;2022-11-27T03:24:43;18.8;15.2;9.4
74432;PMS7003;62865;53.146;23.172;2022-11-27T03:29:33;21.6;17;10
74432;PMS7003;62865;53.146;23.172;2022-11-27T03:34:55;18.6;14.8;9.6
74432;PMS7003;62865;53.146;23.172;2022-11-27T03:39:31;15.8;14.2;9
74432;PMS7003;62865;53.146;23.172;2022-11-27T03:44:40;16.2;13.6;9
74432;PMS7003;62865;53.146;23.172;2022-11-27T03:49:35;21.8;16.8;10.2
74432;PMS7003;62865;53.146;23.172;2022-11-27T03:54:33;20.8;15.8;9.8
74432;PMS7003;62865;53.146;23.172;2022-11-27T03:59:29;20;15.6;9.6
74432;PMS7003;62865;53.146;23.172;2022-11-27T04:04:55;22.2;16;10
74432;PMS7003;62865;53.146;23.172;2022-11-27T04:09:43;20.8;16.8;10.4
74432;PMS7003;62865;53.146;23.172;2022-11-27T04:14:53;20.2;17;10.2
74432;PMS7003;62865;53.146;23.172;2022-11-27T04:19:21;17.6;15.8;9.4
74432;PMS7003;62865;53.146;23.172;2022-11-27T04:24:55;19;16.8;10.2
74432;PMS7003;62865;53.146;23.172;2022-11-27T04:29:41;19.8;16.8;10.4
74432;PMS7003;62865;53.146;23.172;2022-11-27T04:34:35;16.4;13.6;9.4
74432;PMS7003;62865;53.146;23.172;2022-11-27T04:39:35;23;15;10
74432;PMS7003;62865;53.146;23.172;2022-11-27T04:44:33;23.8;19.3;11.8
74432;PMS7003;62865;53.146;23.172;2022-11-27T04:49:43;21;19;11
74432;PMS7003;62865;53.146;23.172;2022-11-27T04:54:31;21;19;11
74432;PMS7003;62865;53.146;23.172;2022-11-27T04:59:57;21.5;18.5;10
74432;PMS7003;62865;53.146;23.172;2022-11-27T05:04:35;21.3;17.3;10.5
74432;PMS7003;62865;53.146;23.172;2022-11-27T05:09:11;20.5;18.5;9.5
74432;PMS7003;62865;53.146;23.172;2022-11-27T05:14:29;23.3;17;10.8
74432;PMS7003;62865;53.146;23.172;2022-11-27T05:19:39;19.5;16.8;9.8
74432;PMS7003;62865;53.146;23.172;2022-11-27T05:24:41;23;19.3;12
74432;PMS7003;62865;53.146;23.172;2022-11-27T05:29:53;19;16;11
74432;PMS7003;62865;53.146;23.172;2022-11-27T05:34:23;18;14;10
74432;PMS7003;62865;53.146;23.172;2022-11-27T05:39:55;22.3;18.5;11.5
74432;PMS7003;62865;53.146;23.172;2022-11-27T05:44:53;20.3;17.3;10.3
74432;PMS7003;62865;53.146;23.172;2022-11-27T05:49:43;20.8;16;10.8
74432;PMS7003;62865;53.146;23.172;2022-11-27T05:54:45;20.5;17.5;9.5
74432;PMS7003;62865;53.146;23.172;2022-11-27T05:59:11;18.5;17.8;9.3
74432;PMS7003;62865;53.146;23.172;2022-11-27T06:04:53;18.8;16.4;9.8
74432;PMS7003;62865;53.146;23.172;2022-11-27T06:09:29;20.3;17.5;10.3
74432;PMS7003;62865;53.146;23.172;2022-11-27T06:14:55;19.8;15.8;10
74432;PMS7003;62865;53.146;23.172;2022-11-27T06:19:21;23.2;18.4;11.4
74432;PMS7003;62865;53.146;23.172;2022-11-27T06:24:31;20.6;16.6;10.2
74432;PMS7003;62865;53.146;23.172;2022-11-27T06:29:55;23;17.8;11.6
74432;PMS7003;62865;53.146;23.172;2022-11-27T06:34:43;21.2;19;12.4
74432;PMS7003;62865;53.146;23.172;2022-11-27T06:39:19;22.4;19;12.2
74432;PMS7003;62865;53.146;23.172;2022-11-27T06:44:43;24;19.8;13.2
74432;PMS7003;62865;53.146;23.172;2022-11-27T06:49:21;26;20.7;13.3
74432;PMS7003;62865;53.146;23.172;2022-11-27T06:54:51;21;21;13
74432;PMS7003;62865;53.146;23.172;2022-11-27T06:59:53;27.5;25.5;15
74432;PMS7003;62865;53.146;23.172;2022-11-27T07:04:43;29.3;23;12.3
74432;PMS7003;62865;53.146;23.172;2022-11-27T07:09:45;28;25;17
74432;PMS7003;62865;53.146;23.172;2022-11-27T07:14:11;28;25;17
74432;PMS7003;62865;53.146;23.172;2022-11-27T07:19:43;27.3;21.3;12.8
74432;PMS7003;62865;53.146;23.172;2022-11-27T07:24:31;24.8;22.4;12.8
74432;PMS7003;62865;53.146;23.172;2022-11-27T07:29:53;25.7;20.7;12.7
74432;PMS7003;62865;53.146;23.172;2022-11-27T07:34:11;26.5;21.3;13.3
74432;PMS7003;62865;53.146;23.172;2022-11-27T07:39:11;27;20.3;13.7
74432;PMS7003;62865;53.146;23.172;2022-11-27T07:44:31;27;20.3;13.7
74432;PMS7003;62865;53.146;23.172;2022-11-27T07:49:39;28.3;22.5;12.3
74432;PMS7003;62865;53.146;23.172;2022-11-27T07:54:39;25.3;21.3;12.7
74432;PMS7003;62865;53.146;23.172;2022-11-27T07:59:41;25.3;21.3;12.8
74432;PMS7003;62865;53.146;23.172;2022-11-27T08:04:33;27;23.5;14.5
74432;PMS7003;62865;53.146;23.172;2022-11-27T08:09:45;22;20;13
74432;PMS7003;62865;53.146;23.172;2022-11-27T08:14:51;27;21;13
74432;PMS7003;62865;53.146;23.172;2022-11-27T08:19:31;26.5;23;14
74432;PMS7003;62865;53.146;23.172;2022-11-27T08:24:21;26.3;21.3;13
74432;PMS7003;62865;53.146;23.172;2022-11-27T08:29:23;29.6;24.2;14.2
74432;PMS7003;62865;53.146;23.172;2022-11-27T08:34:53;25.8;22.6;13.4
74432;PMS7003;62865;53.146;23.172;2022-11-27T08:39:31;29.2;25.2;14
74432;PMS7003;62865;53.146;23.172;2022-11-27T08:44:53;31;25.6;15.4
74432;PMS7003;62865;53.146;23.172;2022-11-27T08:49:33;28.6;24.6;14.4
74432;PMS7003;62865;53.146;23.172;2022-11-27T08:54:23;33;25.8;15
74432;PMS7003;62865;53.146;23.172;2022-11-27T08:59:33;32;26.7;16.3
74432;PMS7003;62865;53.146;23.172;2022-11-27T09:04:43;35;28.3;16.3
74432;PMS7003;62865;53.146;23.172;2022-11-27T09:09:11;34;29.5;17
74432;PMS7003;62865;53.146;23.172;2022-11-27T09:14:43;37.5;32.3;19
74432;PMS7003;62865;53.146;23.172;2022-11-27T09:19:09;32;26.5;15.8
74432;PMS7003;62865;53.146;23.172;2022-11-27T09:24:53;39.5;30.5;17
74432;PMS7003;62865;53.146;23.172;2022-11-27T09:29:55;35.3;28;17
74432;PMS7003;62865;53.146;23.172;2022-11-27T09:34:41;42.5;32;18
74432;PMS7003;62865;53.146;23.172;2022-11-27T09:39:43;36;31.7;19
74432;PMS7003;62865;53.146;23.172;2022-11-27T09:44:23;36.3;29.8;17.3
74432;PMS7003;62865;53.146;23.172;2022-11-27T09:49:53;33.3;28.3;17.3
74432;PMS7003;62865;53.146;23.172;2022-11-27T09:54:12;35.7;30.7;18.3
74432;PMS7003;62865;53.146;23.172;2022-11-27T09:59:55;40.5;33.5;21
74432;PMS7003;62865;53.146;23.172;2022-11-27T10:04:33;41.7;33.3;19.7
74432;PMS7003;62865;53.146;23.172;2022-11-27T10:09:24;39;33.3;19.3
74432;PMS7003;62865;53.146;23.172;2022-11-27T10:14:34;39.8;33;19.2
74432;PMS7003;62865;53.146;23.172;2022-11-27T10:19:54;48.5;40.5;23.5
74432;PMS7003;62865;53.146;23.172;2022-11-27T10:24:31;41.5;35;21.5
74432;PMS7003;62865;53.146;23.172;2022-11-27T10:29:12;47;38;23.5
74432;PMS7003;62865;53.146;23.172;2022-11-27T10:34:23;50.5;36.3;20.8
74432;PMS7003;62865;53.146;23.172;2022-11-27T10:39:55;49;38.3;22.3
74432;PMS7003;62865;53.146;23.172;2022-11-27T10:44:39;43.3;36;21
74432;PMS7003;62865;53.146;23.172;2022-11-27T10:49:41;46.5;36;21
74432;PMS7003;62865;53.146;23.172;2022-11-27T10:54:25;43;36.2;19.8
74432;PMS7003;62865;53.146;23.172;2022-11-27T10:59:32;43.7;36;22.3
74432;PMS7003;62865;53.146;23.172;2022-11-27T11:04:33;39;33.3;20
74432;PMS7003;62865;53.146;23.172;2022-11-27T11:09:46;51.3;39.3;23.3
74432;PMS7003;62865;53.146;23.172;2022-11-27T11:14:29;50.3;39.7;23
74432;PMS7003;62865;53.146;23.172;2022-11-27T11:19:57;53.7;38.7;22.3
74432;PMS7003;62865;53.146;23.172;2022-11-27T11:24:24;47;37.6;22.4
74432;PMS7003;62865;53.146;23.172;2022-11-27T11:29:45;45.7;38;21
74432;PMS7003;62865;53.146;23.172;2022-11-27T11:34:21;47;38.3;22
74432;PMS7003;62865;53.146;23.172;2022-11-27T11:39:58;41.2;34.6;19
74432;PMS7003;62865;53.146;23.172;2022-11-27T11:44:54;44.8;38.5;22.5
74432;PMS7003;62865;53.146;23.172;2022-11-27T11:49:23;44;36.7;20.3
74432;PMS7003;62865;53.146;23.172;2022-11-27T11:54:47;47;38.3;23
74432;PMS7003;62865;53.146;23.172;2022-11-27T11:59:46;49;38.7;22
74432;PMS7003;62865;53.146;23.172;2022-11-27T12:04:47;52;40.5;23
74432;PMS7003;62865;53.146;23.172;2022-11-27T12:09:35;51.7;41;23
74432;PMS7003;62865;53.146;23.172;2022-11-27T12:14:13;54;42.3;24.3
74432;PMS7003;62865;53.146;23.172;2022-11-27T12:19:40;54.5;42.5;25.3
74432;PMS7003;62865;53.146;23.172;2022-11-27T12:24:45;52.8;41.8;24.3
74432;PMS7003;62865;53.146;23.172;2022-11-27T12:29:35;55.5;43.5;25
74432;PMS7003;62865;53.146;23.172;2022-11-27T12:35:00;50.5;40.5;23
74432;PMS7003;62865;53.146;23.172;2022-11-27T12:39:14;60.7;47;25.3
74432;PMS7003;62865;53.146;23.172;2022-11-27T12:44:49;56.3;46;26.7
74432;PMS7003;62865;53.146;23.172;2022-11-27T12:49:35;56.3;46;26.7
74432;PMS7003;62865;53.146;23.172;2022-11-27T12:54:58;59;45;26
74432;PMS7003;62865;53.146;23.172;2022-11-27T12:59:58;59.5;44.5;26
74432;PMS7003;62865;53.146;23.172;2022-11-27T13:04:25;63;47;27.3
74432;PMS7003;62865;53.146;23.172;2022-11-27T13:09:58;63;47;27.3
74432;PMS7003;62865;53.146;23.172;2022-11-27T13:14:45;59.8;45.5;25.5
74432;PMS7003;62865;53.146;23.172;2022-11-27T13:19:57;59.5;44.3;25.8
74432;PMS7003;62865;53.146;23.172;2022-11-27T13:24:35;62;45.8;25.5
74432;PMS7003;62865;53.146;23.172;2022-11-27T13:29:30;60.8;45;24.8
74432;PMS7003;62865;53.146;23.172;2022-11-27T13:34:35;53.6;42;25.6
74432;PMS7003;62865;53.146;23.172;2022-11-27T13:39:43;60;45.5;25.5
74432;PMS7003;62865;53.146;23.172;2022-11-27T13:44:51;53.5;41.3;24
74432;PMS7003;62865;53.146;23.172;2022-11-27T13:49:56;57.3;43.8;24.8
74432;PMS7003;62865;53.146;23.172;2022-11-27T13:54:33;56.8;44;24.5
74432;PMS7003;62865;53.146;23.172;2022-11-27T13:59:56;52;41.3;24.7
74432;PMS7003;62865;53.146;23.172;2022-11-27T14:04:21;55.5;42.5;25.5
74432;PMS7003;62865;53.146;23.172;2022-11-27T14:10:04;51.3;41.3;25
74432;PMS7003;62865;53.146;23.172;2022-11-27T14:14:56;62.3;47;27
74432;PMS7003;62865;53.146;23.172;2022-11-27T14:19:42;58.3;46.3;27
74432;PMS7003;62865;53.146;23.172;2022-11-27T14:24:43;59.5;47;26.5
74432;PMS7003;62865;53.146;23.172;2022-11-27T14:29:47;59.5;46;28
74432;PMS7003;62865;53.146;23.172;2022-11-27T14:34:43;63.3;49;27.3
74432;PMS7003;62865;53.146;23.172;2022-11-27T14:39:22;56.8;44.3;24.3
74432;PMS7003;62865;53.146;23.172;2022-11-27T14:44:23;65.7;49.7;27.7
74432;PMS7003;62865;53.146;23.172;2022-11-27T14:49:14;63.5;49.5;27.5
74432;PMS7003;62865;53.146;23.172;2022-11-27T14:54:43;54;44;27
74432;PMS7003;62865;53.146;23.172;2022-11-27T14:59:20;63.3;47.3;28
74432;PMS7003;62865;53.146;23.172;2022-11-27T15:05:01;62.7;49;27
74432;PMS7003;62865;53.146;23.172;2022-11-27T15:09:15;66.5;50.5;30
74432;PMS7003;62865;53.146;23.172;2022-11-27T15:14:21;66;50;27.5
74432;PMS7003;62865;53.146;23.172;2022-11-27T15:19:32;66.8;50.3;28.3
74432;PMS7003;62865;53.146;23.172;2022-11-27T15:24:57;67.5;51.5;28.5
74432;PMS7003;62865;53.146;23.172;2022-11-27T15:29:59;65;50;27.7
74432;PMS7003;62865;53.146;23.172;2022-11-27T15:34:23;62.6;47.6;28.2
74432;PMS7003;62865;53.146;23.172;2022-11-27T15:39:14;61;47.5;26.5
74432;PMS7003;62865;53.146;23.172;2022-11-27T15:44:35;65;49.5;28
74432;PMS7003;62865;53.146;23.172;2022-11-27T15:49:35;64.3;49.3;27.8
74432;PMS7003;62865;53.146;23.172;2022-11-27T15:54:37;62.7;47.7;27.3
74432;PMS7003;62865;53.146;23.172;2022-11-27T15:59:11;62;48;26
74432;PMS7003;62865;53.146;23.172;2022-11-27T16:04:09;62.3;45.3;25.7
74432;PMS7003;62865;53.146;23.172;2022-11-27T16:09:55;64.3;48;26.7
74432;PMS7003;62865;53.146;23.172;2022-11-27T16:14:29;57.3;44;26.3
74432;PMS7003;62865;53.146;23.172;2022-11-27T16:19:55;65.3;47.5;26
74432;PMS7003;62865;53.146;23.172;2022-11-27T16:24:10;58;44.4;25.6
74432;PMS7003;62865;53.146;23.172;2022-11-27T16:29:21;59.3;44.8;25.5
74432;PMS7003;62865;53.146;23.172;2022-11-27T16:34:33;67.5;47.5;26.5
74432;PMS7003;62865;53.146;23.172;2022-11-27T16:39:43;65;48;26
74432;PMS7003;62865;53.146;23.172;2022-11-27T16:44:56;61.3;46.7;25.3
74432;PMS7003;62865;53.146;23.172;2022-11-27T16:49:11;54.8;42.5;23
74432;PMS7003;62865;53.146;23.172;2022-11-27T16:54:11;61.5;47.5;25
74432;PMS7003;62865;53.146;23.172;2022-11-27T16:59:47;63.3;45.3;25.3
74432;PMS7003;62865;53.146;23.172;2022-11-27T17:04:43;56;44.8;25
74432;PMS7003;62865;53.146;23.172;2022-11-27T17:09:11;62.3;46;25.8
74432;PMS7003;62865;53.146;23.172;2022-11-27T17:14:23;57.5;44.5;25
74432;PMS7003;62865;53.146;23.172;2022-11-27T17:19:23;59;46;28
74432;PMS7003;62865;53.146;23.172;2022-11-27T17:24:57;61.5;47;27
74432;PMS7003;62865;53.146;23.172;2022-11-27T17:29:23;67;49;28
74432;PMS7003;62865;53.146;23.172;2022-11-27T17:34:55;63;47.5;27
74432;PMS7003;62865;53.146;23.172;2022-11-27T17:39:10;63;46;25
74432;PMS7003;62865;53.146;23.172;2022-11-27T17:44:09;63;46;25
74432;PMS7003;62865;53.146;23.172;2022-11-27T17:49:29;59;42.3;25.7
74432;PMS7003;62865;53.146;23.172;2022-11-27T17:54:32;61.5;46.5;26.3
74432;PMS7003;62865;53.146;23.172;2022-11-27T17:59:55;62;46;26
74432;PMS7003;62865;53.146;23.172;2022-11-27T18:04:21;60.2;44.8;26.4
74432;PMS7003;62865;53.146;23.172;2022-11-27T18:09:21;61.3;48.3;28
74432;PMS7003;62865;53.146;23.172;2022-11-27T18:14:23;61.5;50;27.5
74432;PMS7003;62865;53.146;23.172;2022-11-27T18:19:41;62.3;48;27.8
74432;PMS7003;62865;53.146;23.172;2022-11-27T18:24:31;64.3;49.7;27
74432;PMS7003;62865;53.146;23.172;2022-11-27T18:29:21;68.3;49.5;27.8
74432;PMS7003;62865;53.146;23.172;2022-11-27T18:34:21;64.3;48.8;28
74432;PMS7003;62865;53.146;23.172;2022-11-27T18:39:53;61.2;46.6;26.6
74432;PMS7003;62865;53.146;23.172;2022-11-27T18:44:29;58.3;46;26.3
74432;PMS7003;62865;53.146;23.172;2022-11-27T18:49:57;59;47;27.5
74432;PMS7003;62865;53.146;23.172;2022-11-27T18:54:11;63.5;48;27.3
74432;PMS7003;62865;53.146;23.172;2022-11-27T18:59:31;66.3;49;27
74432;PMS7003;62865;53.146;23.172;2022-11-27T19:04:33;60.2;47.6;26
74432;PMS7003;62865;53.146;23.172;2022-11-27T19:09:45;61;45.8;26.8
74432;PMS7003;62865;53.146;23.172;2022-11-27T19:14:57;64.5;50.5;28.5
74432;PMS7003;62865;53.146;23.172;2022-11-27T19:19:29;55.5;43.5;23.5
74432;PMS7003;62865;53.146;23.172;2022-11-27T19:24:09;64.3;48;27.3
74432;PMS7003;62865;53.146;23.172;2022-11-27T19:29:43;64;49.7;28.3
74432;PMS7003;62865;53.146;23.172;2022-11-27T19:34:39;68;52;28
74432;PMS7003;62865;53.146;23.172;2022-11-27T19:39:12;68;52;28
74432;PMS7003;62865;53.146;23.172;2022-11-27T19:44:45;57.8;44.5;27
74432;PMS7003;62865;53.146;23.172;2022-11-27T19:49:21;63.8;47.5;27.5
74432;PMS7003;62865;53.146;23.172;2022-11-27T19:54:55;59.2;45.4;27.4
74432;PMS7003;62865;53.146;23.172;2022-11-27T19:59:19;64;49.5;28
74432;PMS7003;62865;53.146;23.172;2022-11-27T20:04:53;64.3;48.3;26.8
74432;PMS7003;62865;53.146;23.172;2022-11-27T20:09:31;60.3;45;25.3
74432;PMS7003;62865;53.146;23.172;2022-11-27T20:14:19;57.8;44.8;26
74432;PMS7003;62865;53.146;23.172;2022-11-27T20:19:29;63.4;47.4;26.6
74432;PMS7003;62865;53.146;23.172;2022-11-27T20:24:41;60.7;47.3;27.7
74432;PMS7003;62865;53.146;23.172;2022-11-27T20:29:43;59.6;45.4;26.8
74432;PMS7003;62865;53.146;23.172;2022-11-27T20:34:53;61.6;46.8;26
74432;PMS7003;62865;53.146;23.172;2022-11-27T20:39:11;64;48.8;27.3
74432;PMS7003;62865;53.146;23.172;2022-11-27T20:44:55;65.2;50.2;28
74432;PMS7003;62865;53.146;23.172;2022-11-27T20:49:43;63.2;49.2;28.2
74432;PMS7003;62865;53.146;23.172;2022-11-27T20:54:11;61.6;47.2;27.2
74432;PMS7003;62865;53.146;23.172;2022-11-27T20:59:43;52.4;41;25.2
74432;PMS7003;62865;53.146;23.172;2022-11-27T21:04:22;52.3;42;25.3
74432;PMS7003;62865;53.146;23.172;2022-11-27T21:09:57;58.6;43.8;25.2
74432;PMS7003;62865;53.146;23.172;2022-11-27T21:14:21;54;39.8;22.6
74432;PMS7003;62865;53.146;23.172;2022-11-27T21:19:53;57.7;41;24.3
74432;PMS7003;62865;53.146;23.172;2022-11-27T21:24:33;52;41;24.4
74432;PMS7003;62865;53.146;23.172;2022-11-27T21:29:21;51;41.4;24
74432;PMS7003;62865;53.146;23.172;2022-11-27T21:34:31;54;42.2;24
74432;PMS7003;62865;53.146;23.172;2022-11-27T21:39:45;48.7;38.7;22
74432;PMS7003;62865;53.146;23.172;2022-11-27T21:44:43;53;41.8;24.8
74432;PMS7003;62865;53.146;23.172;2022-11-27T21:49:47;54.4;42.6;24.8
74432;PMS7003;62865;53.146;23.172;2022-11-27T21:54:12;52.8;43.3;25.8
74432;PMS7003;62865;53.146;23.172;2022-11-27T21:59:51;52.6;42;24.4
74432;PMS7003;62865;53.146;23.172;2022-11-27T22:04:39;56.5;45.5;25
74432;PMS7003;62865;53.146;23.172;2022-11-27T22:09:53;57;42.8;25
74432;PMS7003;62865;53.146;23.172;2022-11-27T22:14:51;54.4;42.2;25
74432;PMS7003;62865;53.146;23.172;2022-11-27T22:19:31;52.5;42.8;24.8
74432;PMS7003;62865;53.146;23.172;2022-11-27T22:24:53;58.5;46.3;24.8
74432;PMS7003;62865;53.146;23.172;2022-11-27T22:29:25;60.7;45.3;27
74432;PMS7003;62865;53.146;23.172;2022-11-27T22:34:51;60.8;45.8;25.8
74432;PMS7003;62865;53.146;23.172;2022-11-27T22:39:29;61;45.8;25.8
74432;PMS7003;62865;53.146;23.172;2022-11-27T22:44:18;58.5;43.8;25.5
74432;PMS7003;62865;53.146;23.172;2022-11-27T22:49:25;58.8;43;23.4
74432;PMS7003;62865;53.146;23.172;2022-11-27T22:54:37;58.4;44.6;25.2
74432;PMS7003;62865;53.146;23.172;2022-11-27T22:59:37;54.4;42;23.8
74432;PMS7003;62865;53.146;23.172;2022-11-27T23:04:49;48.8;38.3;22
74432;PMS7003;62865;53.146;23.172;2022-11-27T23:09:17;55.3;42.5;24.5
74432;PMS7003;62865;53.146;23.172;2022-11-27T23:14:49;48.8;41.8;25
74432;PMS7003;62865;53.146;23.172;2022-11-27T23:19:37;54.5;39.5;21.8
74432;PMS7003;62865;53.146;23.172;2022-11-27T23:24:29;55.8;42;24.6
74432;PMS7003;62865;53.146;23.172;2022-11-27T23:29:43;53;43.6;24.6
74432;PMS7003;62865;53.146;23.172;2022-11-27T23:34:17;53.8;41.3;23.8
74432;PMS7003;62865;53.146;23.172;2022-11-27T23:39:35;56.3;43.5;24.8
74432;PMS7003;62865;53.146;23.172;2022-11-27T23:44:17;48.5;40;24.5
74432;PMS7003;62865;53.146;23.172;2022-11-27T23:49:49;53.8;41.8;25
74432;PMS7003;62865;53.146;23.172;2022-11-27T23:54:25;50;40.8;23
74432;PMS7003;62865;53.146;23.172;2022-11-27T23:59:09;47.3;38;22
